.
WxDataArchive / Data Records for 2009-01-21
2009-01-20 January 2009 2009-01-22

Data Records for Wednesday, 21 January 2009

Time	Temp	Chill	HIndex	Humid	Dewpt	 Wind 	HiWind	WindDir	Rain 	Barom 
-----	----	-----	------	-----	-----	------	------	-------	-----	----- 
00:00	7.7	7.7	7.7	84	3.9	0	1	248	0.00	30.145 
00:05	8.4	8.4	8.4	84	4.6	0	2	248	0.00	30.142 
00:10	9.0	9.0	9.0	84	5.2	0	1	248	0.00	30.142 
00:15	9.3	9.3	9.3	84	5.5	0	1	248	0.00	30.140 
00:20	9.5	9.5	9.5	84	5.7	0	1	248	0.00	30.137 
00:25	9.7	9.7	9.7	84	5.9	0	1	248	0.00	30.132 
00:30	9.9	9.9	9.9	83	5.8	0	1	248	0.00	30.133 
00:35	9.7	9.7	9.7	83	5.6	0	1	248	0.00	30.135 
00:40	9.9	9.9	9.9	83	5.8	0	1	248	0.00	30.131 
00:45	10.0	10.0	10.0	84	6.2	0	1	248	0.00	30.130 
00:50	10.2	10.2	10.2	84	6.3	0	2	248	0.00	30.130 
00:55	10.5	10.5	10.5	84	6.6	0	2	248	0.00	30.128 
01:00	10.7	10.7	10.7	84	6.8	0	3	248	0.00	30.126 
01:05	10.9	10.9	10.9	84	7.0	0	3	248	0.00	30.126 
01:10	11.1	11.1	11.1	84	7.2	0	2	248	0.00	30.125 
01:15	11.2	11.2	11.2	84	7.3	0	2	248	0.00	30.123 
01:20	11.4	11.4	11.4	84	7.5	1	2	248	0.00	30.122 
01:25	11.4	11.4	11.4	84	7.5	0	1	248	0.00	30.121 
01:30	11.4	11.4	11.4	84	7.5	0	2	248	0.00	30.121 
01:35	11.4	11.4	11.4	84	7.5	1	2	248	0.00	30.122 
01:40	11.2	11.2	11.2	84	7.3	0	3	248	0.00	30.122 
01:45	11.1	11.1	11.1	84	7.2	0	1	248	0.00	30.122 
01:50	10.9	10.9	10.9	84	7.0	0	1	248	0.00	30.122 
01:55	10.7	10.7	10.7	84	6.8	0	1	248	0.00	30.122 
02:00	10.9	10.9	10.9	84	7.0	0	1	248	0.00	30.123 
02:05	10.9	10.9	10.9	84	7.0	0	2	248	0.00	30.123 
02:10	11.1	11.1	11.1	84	7.2	0	2	248	0.00	30.123 
02:15	11.1	11.1	11.1	84	7.2	0	2	248	0.00	30.124 
02:20	11.1	11.1	11.1	84	7.2	1	2	248	0.00	30.125 
02:25	11.1	11.1	11.1	84	7.2	1	3	248	0.00	30.127 
02:30	11.2	11.2	11.2	84	7.3	1	4	248	0.00	30.126 
02:35	11.4	11.4	11.4	84	7.5	1	5	248	0.00	30.130 
02:40	11.2	11.2	11.2	84	7.3	1	4	248	0.00	30.129 
02:45	11.2	11.2	11.2	84	7.3	1	3	248	0.00	30.135 
02:50	11.1	11.1	11.1	84	7.2	1	4	248	0.00	30.134 
02:55	11.1	11.1	11.1	84	7.2	1	4	270	0.00	30.134 
03:00	10.9	10.9	10.9	84	7.0	1	3	248	0.00	30.135 
03:05	10.7	10.7	10.7	84	6.8	1	3	248	0.00	30.134 
03:10	10.7	10.7	10.7	84	6.8	1	4	248	0.00	30.135 
03:15	10.5	10.5	10.5	84	6.6	1	2	248	0.00	30.135 
03:20	10.4	10.4	10.4	84	6.5	1	2	248	0.00	30.137 
03:25	10.2	10.2	10.2	83	6.1	1	3	248	0.00	30.136 
03:30	10.0	10.0	10.0	83	5.9	1	3	248	0.00	30.138 
03:35	10.0	10.0	10.0	83	5.9	1	5	248	0.00	30.139 
03:40	9.9	9.9	9.9	83	5.8	2	4	248	0.00	30.139 
03:45	9.9	9.9	9.9	83	5.8	1	4	248	0.00	30.139 
03:50	9.7	9.7	9.7	83	5.6	2	5	248	0.00	30.138 
03:55	9.5	9.5	9.5	82	5.1	2	5	248	0.00	30.138 
04:00	9.3	9.3	9.3	82	4.9	1	3	248	0.00	30.133 
04:05	9.3	9.3	9.3	82	4.9	2	4	248	0.00	30.128 
04:10	9.2	9.2	9.2	82	4.8	1	3	248	0.00	30.129 
04:15	9.2	9.2	9.2	82	4.8	1	4	248	0.00	30.129 
04:20	9.0	9.0	9.0	82	4.6	1	3	248	0.00	30.128 
04:25	8.8	8.8	8.8	82	4.5	1	4	248	0.00	30.129 
04:30	8.8	8.8	8.8	82	4.5	0	3	248	0.00	30.127 
04:35	8.6	8.6	8.6	82	4.3	1	4	248	0.00	30.127 
04:40	8.6	8.6	8.6	82	4.3	1	2	248	0.00	30.127 
04:45	8.4	8.4	8.4	82	4.1	1	3	248	0.00	30.128 
04:50	8.4	8.4	8.4	82	4.1	1	3	248	0.00	30.127 
04:55	8.3	8.3	8.3	82	4.0	1	3	248	0.00	30.123 
05:00	8.1	8.1	8.1	82	3.8	1	3	248	0.00	30.120 
05:05	7.9	7.9	7.9	82	3.6	1	4	248	0.00	30.119 
05:10	8.1	8.1	8.1	82	3.8	2	5	248	0.00	30.119 
05:15	8.1	8.1	8.1	82	3.8	1	4	248	0.00	30.115 
05:20	8.1	8.1	8.1	82	3.8	1	3	248	0.00	30.115 
05:25	8.3	8.3	8.3	82	4.0	1	3	248	0.00	30.115 
05:30	8.3	8.3	8.3	82	4.0	1	3	248	0.00	30.112 
05:35	8.4	8.4	8.4	82	4.1	2	5	248	0.00	30.113 
05:40	8.6	8.6	8.6	82	4.3	1	4	248	0.00	30.111 
05:45	8.6	8.6	8.6	82	4.3	1	3	248	0.00	30.113 
05:50	8.8	8.8	8.8	82	4.5	1	3	248	0.00	30.113 
05:55	8.8	8.8	8.8	82	4.5	2	4	270	0.00	30.113 
06:00	8.8	8.8	8.8	82	4.5	1	4	248	0.00	30.114 
06:05	8.8	8.8	8.8	82	4.5	2	5	248	0.00	30.115 
06:10	9.0	9.0	9.0	82	4.6	2	4	248	0.00	30.115 
06:15	9.0	9.0	9.0	82	4.6	1	5	248	0.00	30.110 
06:20	9.0	9.0	9.0	82	4.6	2	4	248	0.00	30.114 
06:25	9.0	9.0	9.0	82	4.6	2	5	248	0.00	30.114 
06:30	9.0	9.0	9.0	82	4.6	1	5	248	0.00	30.113 
06:35	9.2	9.2	9.2	82	4.8	3	5	248	0.00	30.113 
06:40	9.2	9.2	9.2	82	4.8	1	3	248	0.00	30.115 
06:45	9.2	9.2	9.2	82	4.8	1	4	248	0.00	30.115 
06:50	9.3	9.3	9.3	82	4.9	1	3	248	0.00	30.114 
06:55	9.5	9.5	9.5	82	5.1	0	2	248	0.00	30.115 
07:00	9.5	9.5	9.5	82	5.1	1	4	248	0.00	30.115 
07:05	9.7	9.7	9.7	82	5.3	1	2	248	0.00	30.113 
07:10	9.7	9.7	9.7	81	5.1	1	5	248	0.00	30.114 
07:15	9.9	9.9	9.9	81	5.3	1	4	248	0.00	30.116 
07:20	9.9	9.9	9.9	81	5.3	1	3	248	0.00	30.114 
07:25	9.9	9.9	9.9	81	5.3	2	6	248	0.00	30.115 
07:30	9.9	9.9	9.9	81	5.3	2	6	248	0.00	30.116 
07:35	9.9	9.9	9.9	81	5.3	1	3	248	0.00	30.117 
07:40	9.9	9.9	9.9	81	5.3	1	3	248	0.00	30.118 
07:45	9.9	9.9	9.9	80	5.0	2	5	248	0.00	30.122 
07:50	10.0	10.0	10.0	80	5.1	2	5	248	0.00	30.120 
07:55	10.0	10.0	10.0	80	5.1	2	4	248	0.00	30.121 
08:00	10.0	10.0	10.0	80	5.1	1	3	248	0.00	30.121 
08:05	10.2	10.2	10.2	80	5.3	1	3	248	0.00	30.123 
08:10	10.2	10.2	10.2	80	5.3	1	4	248	0.00	30.122 
08:15	10.4	10.4	10.4	80	5.5	1	3	248	0.00	30.130 
08:20	10.4	10.4	10.4	80	5.5	1	5	248	0.00	30.135 
08:25	10.5	10.5	10.5	80	5.6	1	4	225	0.00	30.134 
08:30	10.5	10.5	10.5	80	5.6	1	5	270	0.00	30.138 
08:35	10.5	10.5	10.5	80	5.6	1	6	248	0.00	30.140 
08:40	10.7	10.7	10.7	80	5.8	1	5	248	0.00	30.138 
08:45	10.7	10.7	10.7	80	5.8	1	3	248	0.00	30.139 
08:50	10.9	10.9	10.9	80	6.0	1	4	248	0.00	30.140 
08:55	11.1	11.1	11.1	79	5.9	1	2	225	0.00	30.137 
09:00	11.2	11.2	11.2	79	6.0	1	4	248	0.00	30.136 
09:05	11.4	11.4	11.4	79	6.2	1	5	248	0.00	30.131 
09:10	11.6	11.6	11.6	79	6.4	2	5	248	0.00	30.135 
09:15	11.9	11.9	11.9	78	6.4	2	6	248	0.00	30.135 
09:20	12.1	12.1	12.1	78	6.6	1	4	248	0.00	30.138 
09:25	12.4	12.4	12.4	78	6.9	2	7	248	0.00	30.138 
09:30	12.8	12.8	12.8	77	7.0	2	10	248	0.00	30.137 
09:35	13.1	13.1	13.1	77	7.3	3	10	248	0.00	30.140 
09:40	13.3	13.3	13.3	76	7.2	3	6	248	0.00	30.137 
09:45	13.6	13.6	13.6	76	7.5	3	7	248	0.00	30.137 
09:50	14.0	14.0	14.0	75	7.6	3	6	248	0.00	30.137 
09:55	14.1	14.1	14.1	74	7.4	3	7	248	0.00	30.144 
10:00	14.4	14.4	14.4	74	7.7	3	7	248	0.00	30.142 
10:05	14.6	14.6	14.6	73	7.5	3	10	248	0.00	30.137 
10:10	14.9	14.9	14.9	73	7.8	3	11	248	0.00	30.133 
10:15	15.4	15.4	15.4	73	8.3	3	10	248	0.00	30.136 
10:20	15.7	15.7	15.7	71	8.0	3	7	248	0.00	30.134 
10:25	15.7	9.2	15.7	71	8.0	4	12	248	0.00	30.129 
10:30	15.9	9.5	15.9	71	8.2	4	14	248	0.00	30.135 
10:35	16.2	9.8	16.2	70	8.2	4	11	248	0.00	30.136 
10:40	16.5	10.2	16.5	70	8.5	4	13	248	0.00	30.137 
10:45	16.7	16.7	16.7	69	8.3	3	8	248	0.00	30.138 
10:50	16.7	10.4	16.7	69	8.3	4	9	270	0.00	30.137 
10:55	16.9	10.6	16.9	69	8.5	4	9	270	0.00	30.138 
11:00	17.2	17.2	17.2	69	8.8	3	6	270	0.00	30.139 
11:05	17.3	17.3	17.3	68	8.6	2	6	248	0.00	30.128 
11:10	17.3	17.3	17.3	68	8.6	3	7	248	0.00	30.132 
11:15	17.3	17.3	17.3	67	8.3	3	9	270	0.00	30.138 
11:20	17.7	17.7	17.7	68	9.0	3	9	248	0.00	30.136 
11:25	18.1	18.1	18.1	68	9.3	2	7	248	0.00	30.135 
11:30	18.6	18.6	18.6	67	9.5	3	6	248	0.00	30.129 
11:35	18.8	18.8	18.8	66	9.4	3	6	248	0.00	30.126 
11:40	19.1	19.1	19.1	67	10.0	3	10	270	0.00	30.124 
11:45	19.2	19.2	19.2	66	9.7	3	10	270	0.00	30.123 
11:50	19.5	19.5	19.5	66	10.0	3	9	270	0.00	30.120 
11:55	19.7	19.7	19.7	66	10.2	3	6	248	0.00	30.112 
12:00	20.0	14.2	20.0	65	10.2	4	12	270	0.00	30.111 
12:05	20.5	20.5	20.5	65	10.6	3	5	270	0.00	30.106 
12:10	20.8	20.8	20.8	65	10.9	2	6	270	0.00	30.102 
12:15	21.3	21.3	21.3	64	11.0	2	9	248	0.00	30.098 
12:20	21.6	21.6	21.6	64	11.3	3	8	248	0.00	30.093 
12:25	22.2	22.2	22.2	64	11.9	2	5	248	0.00	30.088 
12:30	22.5	22.5	22.5	63	11.8	2	7	248	0.00	30.085 
12:35	23.0	23.0	23.0	63	12.3	2	5	292	0.00	30.082 
12:40	23.2	23.2	23.2	62	12.1	2	6	248	0.00	30.081 
12:45	23.5	23.5	23.5	62	12.4	2	5	248	0.00	30.081 
12:50	23.6	23.6	23.6	62	12.5	2	6	248	0.00	30.079 
12:55	23.9	23.9	23.9	62	12.8	1	5	248	0.00	30.078 
13:00	24.2	24.2	24.2	61	12.7	2	6	270	0.00	30.069 
13:05	24.1	24.1	24.1	60	12.3	3	7	270	0.00	30.068 
13:10	24.2	24.2	24.2	60	12.3	2	8	248	0.00	30.064 
13:15	23.6	18.4	23.6	60	11.8	4	10	248	0.00	30.057 
13:20	23.8	23.8	23.8	62	12.7	2	7	248	0.00	30.055 
13:25	23.9	23.9	23.9	61	12.4	3	9	248	0.00	30.054 
13:30	24.1	24.1	24.1	60	12.3	3	10	248	0.00	30.052 
13:35	24.1	19.0	24.1	60	12.3	4	7	248	0.00	30.053 
13:40	24.1	24.1	24.1	60	12.3	3	7	270	0.00	30.050 
13:45	24.4	24.4	24.4	60	12.5	2	7	248	0.00	30.040 
13:50	24.5	24.5	24.5	59	12.3	3	7	248	0.00	30.038 
13:55	24.5	24.5	24.5	60	12.6	3	10	270	0.00	30.036 
14:00	24.8	24.8	24.8	60	12.9	2	6	248	0.00	30.034 
14:05	24.8	24.8	24.8	60	12.9	3	7	248	0.00	30.034 
14:10	25.1	25.1	25.1	59	12.8	3	9	270	0.00	30.034 
14:15	25.1	25.1	25.1	60	13.2	2	5	270	0.00	30.035 
14:20	25.4	25.4	25.4	60	13.5	2	5	248	0.00	30.034 
14:25	25.6	25.6	25.6	60	13.7	2	6	248	0.00	30.036 
14:30	25.4	25.4	25.4	60	13.5	3	7	248	0.00	30.035 
14:35	25.3	25.3	25.3	60	13.4	3	8	248	0.00	30.035 
14:40	25.4	25.4	25.4	60	13.5	3	7	248	0.00	30.031 
14:45	25.3	25.3	25.3	60	13.4	3	7	270	0.00	30.025 
14:50	25.4	25.4	25.4	61	13.9	1	4	248	0.00	30.019 
14:55	25.7	25.7	25.7	60	13.8	2	6	248	0.00	30.019 
15:00	25.8	25.8	25.8	60	13.9	3	7	248	0.00	30.020 
15:05	25.7	25.7	25.7	60	13.8	3	6	270	0.00	30.023 
15:10	25.4	25.4	25.4	61	13.9	3	6	248	0.00	30.022 
15:15	25.4	25.4	25.4	61	13.9	2	9	248	0.00	30.026 
15:20	25.4	25.4	25.4	61	13.9	3	8	248	0.00	30.025 
15:25	25.7	25.7	25.7	61	14.1	3	9	248	0.00	30.026 
15:30	26.0	26.0	26.0	60	14.0	3	7	225	0.00	30.022 
15:35	26.3	26.3	26.3	60	14.3	3	6	270	0.00	30.024 
15:40	26.6	26.6	26.6	59	14.2	3	9	270	0.00	30.022 
15:45	26.7	26.7	26.7	60	14.7	3	9	248	0.00	30.019 
15:50	27.0	27.0	27.0	59	14.6	3	7	248	0.00	30.020 
15:55	27.0	27.0	27.0	59	14.6	3	9	248	0.00	30.021 
16:00	26.9	26.9	26.9	59	14.5	3	10	248	0.00	30.019 
16:05	26.7	26.7	26.7	59	14.3	3	9	248	0.00	30.020 
16:10	26.4	26.4	26.4	59	14.0	3	8	248	0.00	30.020 
16:15	26.3	26.3	26.3	60	14.3	3	7	248	0.00	30.021 
16:20	26.0	26.0	26.0	61	14.4	2	5	270	0.00	30.018 
16:25	26.0	26.0	26.0	61	14.4	3	9	270	0.00	30.019 
16:30	25.7	20.8	25.7	62	14.5	4	13	248	0.00	30.019 
16:35	25.4	20.5	25.4	62	14.2	4	10	248	0.00	30.019 
16:40	25.4	25.4	25.4	63	14.6	3	9	248	0.00	30.022 
16:45	25.4	25.4	25.4	63	14.6	3	5	248	0.00	30.023 
16:50	25.4	25.4	25.4	63	14.6	2	6	248	0.00	30.022 
16:55	25.3	25.3	25.3	63	14.5	3	11	270	0.00	30.023 
17:00	25.3	20.3	25.3	64	14.9	4	10	248	0.00	30.023 
17:05	25.1	25.1	25.1	64	14.7	2	6	248	0.00	30.020 
17:10	25.1	25.1	25.1	64	14.7	3	7	248	0.00	30.016 
17:15	25.1	25.1	25.1	64	14.7	2	7	248	0.00	30.018 
17:20	25.0	25.0	25.0	64	14.6	2	7	270	0.00	30.016 
17:25	24.8	24.8	24.8	64	14.4	3	9	248	0.00	30.016 
17:30	24.8	24.8	24.8	65	14.7	2	10	248	0.00	30.019 
17:35	24.7	24.7	24.7	65	14.6	2	6	270	0.00	30.019 
17:40	24.5	24.5	24.5	65	14.4	2	5	248	0.00	30.021 
17:45	24.4	24.4	24.4	65	14.3	2	6	248	0.00	30.023 
17:50	24.2	24.2	24.2	65	14.2	1	3	248	0.00	30.026 
17:55	24.1	24.1	24.1	66	14.4	1	3	248	0.00	30.026 
18:00	23.9	23.9	23.9	66	14.2	1	4	248	0.00	30.024 
18:05	23.8	23.8	23.8	66	14.1	1	4	248	0.00	30.022 
18:10	23.6	23.6	23.6	67	14.3	1	4	270	0.00	30.023 
18:15	23.5	23.5	23.5	67	14.2	0	2	270	0.00	30.022 
18:20	23.3	23.3	23.3	67	14.0	0	2	248	0.00	30.025 
18:25	23.2	23.2	23.2	67	13.9	0	2	248	0.00	30.025 
18:30	22.9	22.9	22.9	67	13.6	0	1	248	0.00	30.024 
18:35	22.4	22.4	22.4	68	13.5	0	1	248	0.00	30.025 
18:40	22.2	22.2	22.2	68	13.3	0	1	248	0.00	30.028 
18:45	21.9	21.9	21.9	69	13.3	0	0	---	0.00	30.030 
18:50	21.6	21.6	21.6	69	13.0	0	0	---	0.00	30.034 
18:55	21.3	21.3	21.3	69	12.7	0	0	---	0.00	30.039 
19:00	21.0	21.0	21.0	70	12.8	0	1	248	0.00	30.037 
19:05	20.6	20.6	20.6	71	12.7	0	0	---	0.00	30.039 
19:10	20.3	20.3	20.3	71	12.4	0	0	---	0.00	30.040 
19:15	20.0	20.0	20.0	73	12.8	0	0	---	0.00	30.039 
19:20	20.0	20.0	20.0	73	12.8	0	0	---	0.00	30.038 
19:25	19.9	19.9	19.9	73	12.7	0	0	---	0.00	30.036 
19:30	19.7	19.7	19.7	73	12.5	0	0	---	0.00	30.037 
19:35	19.5	19.5	19.5	73	12.3	0	0	---	0.00	30.035 
19:40	19.4	19.4	19.4	74	12.5	0	0	---	0.00	30.033 
19:45	19.2	19.2	19.2	74	12.3	0	0	---	0.00	30.030 
19:50	18.9	18.9	18.9	74	12.0	0	0	---	0.00	30.028 
19:55	18.8	18.8	18.8	75	12.2	0	0	---	0.00	30.028 
20:00	18.4	18.4	18.4	75	11.8	0	0	---	0.00	30.029 
20:05	18.3	18.3	18.3	76	12.0	0	0	---	0.00	30.031 
20:10	18.1	18.1	18.1	76	11.8	0	0	---	0.00	30.029 
20:15	18.1	18.1	18.1	77	12.1	0	1	248	0.00	30.029 
20:20	18.3	18.3	18.3	77	12.3	0	1	248	0.00	30.030 
20:25	18.4	18.4	18.4	77	12.4	0	0	---	0.00	30.029 
20:30	18.4	18.4	18.4	77	12.4	0	0	---	0.00	30.030 
20:35	18.8	18.8	18.8	77	12.8	0	2	248	0.00	30.029 
20:40	19.1	19.1	19.1	77	13.1	0	1	248	0.00	30.026 
20:45	19.4	19.4	19.4	77	13.4	0	2	248	0.00	30.025 
20:50	19.7	19.7	19.7	76	13.4	0	2	248	0.00	30.025 
20:55	19.5	19.5	19.5	75	12.9	0	1	248	0.00	30.025 
21:00	19.4	19.4	19.4	75	12.8	0	1	248	0.00	30.026 
21:05	19.2	19.2	19.2	75	12.6	0	2	248	0.00	30.024 
21:10	19.2	19.2	19.2	75	12.6	0	1	248	0.00	30.024 
21:15	19.4	19.4	19.4	76	13.1	0	2	248	0.00	30.022 
21:20	19.5	19.5	19.5	76	13.2	0	1	248	0.00	30.022 
21:25	19.9	19.9	19.9	76	13.6	0	3	248	0.00	30.019 
21:30	20.3	20.3	20.3	76	14.0	0	2	248	0.00	30.019 
21:35	21.0	21.0	21.0	76	14.6	1	3	248	0.00	30.021 
21:40	21.6	21.6	21.6	75	14.9	1	3	248	0.00	30.021 
21:45	22.2	22.2	22.2	73	14.9	1	4	248	0.00	30.018 
21:50	22.7	22.7	22.7	73	15.4	1	3	248	0.00	30.016 
21:55	23.0	23.0	23.0	72	15.3	1	4	248	0.00	30.015 
22:00	23.3	23.3	23.3	71	15.3	2	4	248	0.00	30.011 
22:05	23.6	23.6	23.6	71	15.6	1	4	248	0.00	30.005 
22:10	23.8	23.8	23.8	71	15.8	1	5	225	0.00	30.005 
22:15	23.9	23.9	23.9	71	15.9	1	4	248	0.00	30.003 
22:20	24.2	24.2	24.2	70	15.9	2	5	248	0.00	30.005 
22:25	24.4	24.4	24.4	70	16.0	1	4	248	0.00	30.005 
22:30	24.4	24.4	24.4	70	16.0	2	5	248	0.00	30.002 
22:35	24.5	24.5	24.5	70	16.1	2	6	248	0.00	29.999 
22:40	24.7	24.7	24.7	70	16.3	1	5	225	0.00	29.999 
22:45	24.7	24.7	24.7	70	16.3	1	3	248	0.00	29.998 
22:50	24.8	24.8	24.8	70	16.4	1	3	248	0.00	29.998 
22:55	25.0	25.0	25.0	70	16.6	1	3	248	0.00	29.999 
23:00	25.1	25.1	25.1	70	16.7	1	4	248	0.00	29.999 
23:05	25.3	25.3	25.3	70	16.9	1	3	248	0.00	30.000 
23:10	25.4	25.4	25.4	70	17.0	1	4	248	0.00	29.998 
23:15	25.6	25.6	25.6	70	17.2	1	4	248	0.00	29.994 
23:20	25.6	25.6	25.6	70	17.2	1	3	248	0.00	29.993 
23:25	25.6	25.6	25.6	70	17.2	2	4	248	0.00	29.991 
23:30	25.6	25.6	25.6	70	17.2	1	4	248	0.00	29.990 
23:35	25.6	25.6	25.6	70	17.2	1	3	225	0.00	29.990 
23:40	25.6	25.6	25.6	70	17.2	1	3	248	0.00	29.985 
23:45	25.6	25.6	25.6	71	17.5	1	4	248	0.00	29.983 
23:50	25.6	25.6	25.6	71	17.5	1	3	248	0.00	29.980 
23:55	25.4	25.4	25.4	71	17.3	1	3	248	0.00	29.980 

CoCoRaHS
IN-AL-39
A2 Web Hosting
Creative Commons License
GoDaddy
search engine by freefind advanced

loaded 2018-11-16 00:06:27 • last modified 2010-11-18 10:43:29
Privacy PolicyDisclaimer
• wx.awcolley.com is powered by PmWiki v.2002016 •
• all content (unless otherwise noted) © 2018 A W Colley